sensor_id;sensor_type;location;lat;lon;timestamp;P1;durP1;ratioP1;P2;durP2;ratioP2
52838;SDS011;39219;53.678;9.856;2024-03-25T00:00:43;7.32;;;2.30;;
52838;SDS011;39219;53.678;9.856;2024-03-25T00:03:09;6.38;;;2.30;;
52838;SDS011;39219;53.678;9.856;2024-03-25T00:05:35;9.55;;;2.72;;
52838;SDS011;39219;53.678;9.856;2024-03-25T00:08:01;6.22;;;2.80;;
52838;SDS011;39219;53.678;9.856;2024-03-25T00:10:28;9.02;;;2.58;;
52838;SDS011;39219;53.678;9.856;2024-03-25T00:12:53;7.20;;;2.80;;
52838;SDS011;39219;53.678;9.856;2024-03-25T00:15:21;7.78;;;2.67;;
52838;SDS011;39219;53.678;9.856;2024-03-25T00:17:50;7.30;;;2.30;;
52838;SDS011;39219;53.678;9.856;2024-03-25T00:20:16;8.73;;;2.80;;
52838;SDS011;39219;53.678;9.856;2024-03-25T00:22:43;7.22;;;2.70;;
52838;SDS011;39219;53.678;9.856;2024-03-25T00:25:09;8.82;;;2.60;;
52838;SDS011;39219;53.678;9.856;2024-03-25T00:27:35;7.65;;;2.47;;
52838;SDS011;39219;53.678;9.856;2024-03-25T00:30:01;7.75;;;2.70;;
52838;SDS011;39219;53.678;9.856;2024-03-25T00:32:27;9.05;;;2.67;;
52838;SDS011;39219;53.678;9.856;2024-03-25T00:34:55;10.45;;;2.65;;
52838;SDS011;39219;53.678;9.856;2024-03-25T00:37:20;9.57;;;2.53;;
52838;SDS011;39219;53.678;9.856;2024-03-25T00:39:47;8.68;;;2.72;;
52838;SDS011;39219;53.678;9.856;2024-03-25T00:42:12;8.88;;;2.75;;
52838;SDS011;39219;53.678;9.856;2024-03-25T00:44:39;10.27;;;2.78;;
52838;SDS011;39219;53.678;9.856;2024-03-25T00:47:04;11.45;;;2.83;;
52838;SDS011;39219;53.678;9.856;2024-03-25T00:49:31;12.57;;;3.20;;
52838;SDS011;39219;53.678;9.856;2024-03-25T00:51:57;10.77;;;2.65;;
52838;SDS011;39219;53.678;9.856;2024-03-25T00:54:24;8.25;;;2.45;;
52838;SDS011;39219;53.678;9.856;2024-03-25T00:56:49;9.60;;;2.42;;
52838;SDS011;39219;53.678;9.856;2024-03-25T00:59:18;9.98;;;2.70;;
52838;SDS011;39219;53.678;9.856;2024-03-25T01:01:43;7.60;;;2.50;;
52838;SDS011;39219;53.678;9.856;2024-03-25T01:04:10;6.22;;;2.60;;
52838;SDS011;39219;53.678;9.856;2024-03-25T01:06:35;9.77;;;3.05;;
52838;SDS011;39219;53.678;9.856;2024-03-25T01:09:04;7.85;;;2.47;;
52838;SDS011;39219;53.678;9.856;2024-03-25T01:11:29;10.82;;;3.17;;
52838;SDS011;39219;53.678;9.856;2024-03-25T01:13:56;11.00;;;3.00;;
52838;SDS011;39219;53.678;9.856;2024-03-25T01:16:21;9.20;;;2.97;;
52838;SDS011;39219;53.678;9.856;2024-03-25T01:18:48;7.95;;;2.60;;
52838;SDS011;39219;53.678;9.856;2024-03-25T01:21:13;8.00;;;2.80;;
52838;SDS011;39219;53.678;9.856;2024-03-25T01:23:40;10.00;;;2.92;;
52838;SDS011;39219;53.678;9.856;2024-03-25T01:26:06;9.73;;;2.90;;
52838;SDS011;39219;53.678;9.856;2024-03-25T01:28:33;11.43;;;2.95;;
52838;SDS011;39219;53.678;9.856;2024-03-25T01:30:58;11.60;;;3.10;;
52838;SDS011;39219;53.678;9.856;2024-03-25T01:33:25;8.57;;;2.80;;
52838;SDS011;39219;53.678;9.856;2024-03-25T01:35:51;10.50;;;3.33;;
52838;SDS011;39219;53.678;9.856;2024-03-25T01:38:19;7.95;;;2.75;;
52838;SDS011;39219;53.678;9.856;2024-03-25T01:40:45;10.18;;;3.45;;
52838;SDS011;39219;53.678;9.856;2024-03-25T01:43:13;10.60;;;3.58;;
52838;SDS011;39219;53.678;9.856;2024-03-25T01:45:38;11.25;;;3.50;;
52838;SDS011;39219;53.678;9.856;2024-03-25T01:48:06;9.15;;;3.50;;
52838;SDS011;39219;53.678;9.856;2024-03-25T01:50:33;11.70;;;3.63;;
52838;SDS011;39219;53.678;9.856;2024-03-25T01:53:01;9.90;;;3.33;;
52838;SDS011;39219;53.678;9.856;2024-03-25T01:55:28;7.78;;;3.20;;
52838;SDS011;39219;53.678;9.856;2024-03-25T01:57:56;9.00;;;3.22;;
52838;SDS011;39219;53.678;9.856;2024-03-25T02:00:23;9.65;;;3.42;;
52838;SDS011;39219;53.678;9.856;2024-03-25T02:02:52;9.88;;;3.13;;
52838;SDS011;39219;53.678;9.856;2024-03-25T02:05:17;9.43;;;3.38;;
52838;SDS011;39219;53.678;9.856;2024-03-25T02:07:44;8.95;;;3.17;;
52838;SDS011;39219;53.678;9.856;2024-03-25T02:10:10;9.13;;;3.05;;
52838;SDS011;39219;53.678;9.856;2024-03-25T02:12:39;7.45;;;3.13;;
52838;SDS011;39219;53.678;9.856;2024-03-25T02:15:05;10.18;;;3.15;;
52838;SDS011;39219;53.678;9.856;2024-03-25T02:17:34;8.68;;;3.00;;
52838;SDS011;39219;53.678;9.856;2024-03-25T02:20:00;6.88;;;2.72;;
52838;SDS011;39219;53.678;9.856;2024-03-25T02:22:26;7.60;;;3.00;;
52838;SDS011;39219;53.678;9.856;2024-03-25T02:24:52;9.45;;;2.67;;
52838;SDS011;39219;53.678;9.856;2024-03-25T02:27:24;7.50;;;2.97;;
52838;SDS011;39219;53.678;9.856;2024-03-25T02:29:49;7.95;;;3.05;;
52838;SDS011;39219;53.678;9.856;2024-03-25T02:32:16;7.50;;;3.10;;
52838;SDS011;39219;53.678;9.856;2024-03-25T02:34:43;8.45;;;3.13;;
52838;SDS011;39219;53.678;9.856;2024-03-25T02:37:12;9.65;;;3.17;;
52838;SDS011;39219;53.678;9.856;2024-03-25T02:39:38;8.40;;;3.25;;
52838;SDS011;39219;53.678;9.856;2024-03-25T02:42:04;10.32;;;3.50;;
52838;SDS011;39219;53.678;9.856;2024-03-25T02:44:31;8.73;;;3.10;;
52838;SDS011;39219;53.678;9.856;2024-03-25T02:46:59;11.48;;;3.15;;
52838;SDS011;39219;53.678;9.856;2024-03-25T02:49:25;9.30;;;2.70;;
52838;SDS011;39219;53.678;9.856;2024-03-25T02:51:51;8.68;;;2.78;;
52838;SDS011;39219;53.678;9.856;2024-03-25T02:54:17;9.05;;;2.60;;
52838;SDS011;39219;53.678;9.856;2024-03-25T02:56:44;11.07;;;3.28;;
52838;SDS011;39219;53.678;9.856;2024-03-25T02:59:09;8.98;;;3.05;;
52838;SDS011;39219;53.678;9.856;2024-03-25T03:01:37;8.27;;;2.80;;
52838;SDS011;39219;53.678;9.856;2024-03-25T03:04:03;7.68;;;2.42;;
52838;SDS011;39219;53.678;9.856;2024-03-25T03:06:29;7.93;;;2.75;;
52838;SDS011;39219;53.678;9.856;2024-03-25T03:08:55;10.07;;;2.85;;
52838;SDS011;39219;53.678;9.856;2024-03-25T03:11:21;8.75;;;2.65;;
52838;SDS011;39219;53.678;9.856;2024-03-25T03:13:47;7.15;;;2.22;;
52838;SDS011;39219;53.678;9.856;2024-03-25T03:16:13;11.88;;;2.50;;
52838;SDS011;39219;53.678;9.856;2024-03-25T03:18:40;6.22;;;2.00;;
52838;SDS011;39219;53.678;9.856;2024-03-25T03:21:07;9.18;;;2.53;;
52838;SDS011;39219;53.678;9.856;2024-03-25T03:23:32;7.75;;;2.40;;
52838;SDS011;39219;53.678;9.856;2024-03-25T03:25:58;9.38;;;2.53;;
52838;SDS011;39219;53.678;9.856;2024-03-25T03:28:25;8.40;;;2.30;;
52838;SDS011;39219;53.678;9.856;2024-03-25T03:30:53;10.95;;;2.47;;
52838;SDS011;39219;53.678;9.856;2024-03-25T03:33:18;4.80;;;1.83;;
52838;SDS011;39219;53.678;9.856;2024-03-25T03:35:46;8.85;;;2.40;;
52838;SDS011;39219;53.678;9.856;2024-03-25T03:38:11;7.68;;;2.30;;
52838;SDS011;39219;53.678;9.856;2024-03-25T03:40:38;6.47;;;2.05;;
52838;SDS011;39219;53.678;9.856;2024-03-25T03:43:03;5.68;;;1.80;;
52838;SDS011;39219;53.678;9.856;2024-03-25T03:45:32;9.82;;;2.10;;
52838;SDS011;39219;53.678;9.856;2024-03-25T03:47:58;8.77;;;2.30;;
52838;SDS011;39219;53.678;9.856;2024-03-25T03:50:25;6.05;;;2.25;;
52838;SDS011;39219;53.678;9.856;2024-03-25T03:52:51;5.82;;;2.05;;
52838;SDS011;39219;53.678;9.856;2024-03-25T03:55:18;7.93;;;2.85;;
52838;SDS011;39219;53.678;9.856;2024-03-25T03:57:44;11.02;;;2.78;;
52838;SDS011;39219;53.678;9.856;2024-03-25T04:00:11;6.68;;;2.40;;
52838;SDS011;39219;53.678;9.856;2024-03-25T04:02:38;4.00;;;1.92;;
52838;SDS011;39219;53.678;9.856;2024-03-25T04:05:05;7.45;;;2.28;;
52838;SDS011;39219;53.678;9.856;2024-03-25T04:07:31;5.47;;;2.67;;
52838;SDS011;39219;53.678;9.856;2024-03-25T04:09:59;7.05;;;2.72;;
52838;SDS011;39219;53.678;9.856;2024-03-25T04:12:25;6.43;;;2.75;;
52838;SDS011;39219;53.678;9.856;2024-03-25T04:14:51;4.82;;;2.33;;
52838;SDS011;39219;53.678;9.856;2024-03-25T04:17:20;7.38;;;2.33;;
52838;SDS011;39219;53.678;9.856;2024-03-25T04:19:47;4.35;;;2.10;;
52838;SDS011;39219;53.678;9.856;2024-03-25T04:22:12;6.25;;;2.30;;
52838;SDS011;39219;53.678;9.856;2024-03-25T04:24:39;6.38;;;2.00;;
52838;SDS011;39219;53.678;9.856;2024-03-25T04:27:06;5.90;;;1.92;;
52838;SDS011;39219;53.678;9.856;2024-03-25T04:29:32;6.88;;;2.05;;
52838;SDS011;39219;53.678;9.856;2024-03-25T04:31:58;5.55;;;2.40;;
52838;SDS011;39219;53.678;9.856;2024-03-25T04:34:24;5.45;;;1.95;;
52838;SDS011;39219;53.678;9.856;2024-03-25T04:36:50;3.65;;;2.05;;
52838;SDS011;39219;53.678;9.856;2024-03-25T04:39:16;4.45;;;2.00;;
52838;SDS011;39219;53.678;9.856;2024-03-25T04:41:42;4.68;;;1.90;;
52838;SDS011;39219;53.678;9.856;2024-03-25T04:44:09;4.78;;;1.73;;
52838;SDS011;39219;53.678;9.856;2024-03-25T04:46:34;3.58;;;2.00;;
52838;SDS011;39219;53.678;9.856;2024-03-25T04:49:00;4.43;;;1.83;;
52838;SDS011;39219;53.678;9.856;2024-03-25T04:51:25;4.38;;;1.80;;
52838;SDS011;39219;53.678;9.856;2024-03-25T04:53:51;5.45;;;1.98;;
52838;SDS011;39219;53.678;9.856;2024-03-25T04:56:17;4.63;;;2.15;;
52838;SDS011;39219;53.678;9.856;2024-03-25T04:58:42;4.13;;;2.33;;
52838;SDS011;39219;53.678;9.856;2024-03-25T05:01:09;4.68;;;2.33;;
52838;SDS011;39219;53.678;9.856;2024-03-25T05:03:35;5.78;;;2.05;;
52838;SDS011;39219;53.678;9.856;2024-03-25T05:06:00;4.22;;;1.85;;
52838;SDS011;39219;53.678;9.856;2024-03-25T05:08:26;4.95;;;2.08;;
52838;SDS011;39219;53.678;9.856;2024-03-25T05:10:51;4.47;;;2.13;;
52838;SDS011;39219;53.678;9.856;2024-03-25T05:13:17;3.70;;;2.00;;
52838;SDS011;39219;53.678;9.856;2024-03-25T05:15:49;6.20;;;2.20;;
52838;SDS011;39219;53.678;9.856;2024-03-25T05:18:16;4.07;;;1.77;;
52838;SDS011;39219;53.678;9.856;2024-03-25T05:20:42;5.25;;;2.03;;
52838;SDS011;39219;53.678;9.856;2024-03-25T05:23:07;3.72;;;2.20;;
52838;SDS011;39219;53.678;9.856;2024-03-25T05:25:34;5.60;;;2.95;;
52838;SDS011;39219;53.678;9.856;2024-03-25T05:27:59;7.15;;;3.08;;
52838;SDS011;39219;53.678;9.856;2024-03-25T05:30:25;7.72;;;2.40;;
52838;SDS011;39219;53.678;9.856;2024-03-25T05:32:50;7.50;;;2.50;;
52838;SDS011;39219;53.678;9.856;2024-03-25T05:35:17;6.55;;;2.53;;
52838;SDS011;39219;53.678;9.856;2024-03-25T05:37:43;6.45;;;1.95;;
52838;SDS011;39219;53.678;9.856;2024-03-25T05:40:09;6.68;;;2.33;;
52838;SDS011;39219;53.678;9.856;2024-03-25T05:42:36;5.15;;;2.28;;
52838;SDS011;39219;53.678;9.856;2024-03-25T05:45:01;5.07;;;2.50;;
52838;SDS011;39219;53.678;9.856;2024-03-25T05:47:27;6.32;;;2.33;;
52838;SDS011;39219;53.678;9.856;2024-03-25T05:49:52;4.15;;;2.28;;
52838;SDS011;39219;53.678;9.856;2024-03-25T05:52:19;6.20;;;2.45;;
52838;SDS011;39219;53.678;9.856;2024-03-25T05:54:45;6.30;;;2.92;;
52838;SDS011;39219;53.678;9.856;2024-03-25T05:57:10;4.53;;;2.40;;
52838;SDS011;39219;53.678;9.856;2024-03-25T05:59:36;6.82;;;2.42;;
52838;SDS011;39219;53.678;9.856;2024-03-25T06:02:02;5.10;;;2.42;;
52838;SDS011;39219;53.678;9.856;2024-03-25T06:04:27;5.80;;;2.50;;
52838;SDS011;39219;53.678;9.856;2024-03-25T06:06:53;5.78;;;2.63;;
52838;SDS011;39219;53.678;9.856;2024-03-25T06:09:20;4.90;;;2.50;;
52838;SDS011;39219;53.678;9.856;2024-03-25T06:11:45;6.65;;;2.40;;
52838;SDS011;39219;53.678;9.856;2024-03-25T06:14:11;7.60;;;2.70;;
52838;SDS011;39219;53.678;9.856;2024-03-25T06:16:36;5.88;;;2.65;;
52838;SDS011;39219;53.678;9.856;2024-03-25T06:19:02;6.05;;;2.60;;
52838;SDS011;39219;53.678;9.856;2024-03-25T06:21:27;6.28;;;2.88;;
52838;SDS011;39219;53.678;9.856;2024-03-25T06:23:53;4.63;;;2.58;;
52838;SDS011;39219;53.678;9.856;2024-03-25T06:26:20;5.10;;;2.63;;
52838;SDS011;39219;53.678;9.856;2024-03-25T06:28:46;4.07;;;2.33;;
52838;SDS011;39219;53.678;9.856;2024-03-25T06:31:11;4.75;;;2.15;;
52838;SDS011;39219;53.678;9.856;2024-03-25T06:33:55;6.03;;;2.42;;
52838;SDS011;39219;53.678;9.856;2024-03-25T06:36:39;5.57;;;2.10;;
52838;SDS011;39219;53.678;9.856;2024-03-25T06:39:04;5.72;;;2.58;;
52838;SDS011;39219;53.678;9.856;2024-03-25T06:41:31;6.50;;;2.50;;
52838;SDS011;39219;53.678;9.856;2024-03-25T06:43:57;6.70;;;2.38;;
52838;SDS011;39219;53.678;9.856;2024-03-25T06:46:23;7.65;;;2.88;;
52838;SDS011;39219;53.678;9.856;2024-03-25T06:48:48;3.85;;;2.35;;
52838;SDS011;39219;53.678;9.856;2024-03-25T06:51:14;6.28;;;2.28;;
52838;SDS011;39219;53.678;9.856;2024-03-25T06:53:39;4.38;;;2.10;;
52838;SDS011;39219;53.678;9.856;2024-03-25T06:56:05;4.13;;;2.03;;
52838;SDS011;39219;53.678;9.856;2024-03-25T06:58:32;6.63;;;2.20;;
52838;SDS011;39219;53.678;9.856;2024-03-25T07:01:03;5.22;;;2.15;;
52838;SDS011;39219;53.678;9.856;2024-03-25T07:03:30;6.45;;;2.40;;
52838;SDS011;39219;53.678;9.856;2024-03-25T07:05:55;9.18;;;2.25;;
52838;SDS011;39219;53.678;9.856;2024-03-25T07:08:21;6.22;;;2.40;;
52838;SDS011;39219;53.678;9.856;2024-03-25T07:10:47;7.50;;;2.63;;
52838;SDS011;39219;53.678;9.856;2024-03-25T07:13:12;9.20;;;2.63;;
52838;SDS011;39219;53.678;9.856;2024-03-25T07:15:39;8.55;;;2.78;;
52838;SDS011;39219;53.678;9.856;2024-03-25T07:18:05;5.00;;;2.40;;
52838;SDS011;39219;53.678;9.856;2024-03-25T07:20:31;8.45;;;2.72;;
52838;SDS011;39219;53.678;9.856;2024-03-25T07:22:57;8.52;;;2.50;;
52838;SDS011;39219;53.678;9.856;2024-03-25T07:25:23;7.97;;;2.63;;
52838;SDS011;39219;53.678;9.856;2024-03-25T07:27:49;6.10;;;2.53;;
52838;SDS011;39219;53.678;9.856;2024-03-25T07:30:15;7.25;;;2.45;;
52838;SDS011;39219;53.678;9.856;2024-03-25T07:32:42;8.40;;;2.47;;
52838;SDS011;39219;53.678;9.856;2024-03-25T07:35:08;4.68;;;2.25;;
52838;SDS011;39219;53.678;9.856;2024-03-25T07:37:34;8.20;;;2.25;;
52838;SDS011;39219;53.678;9.856;2024-03-25T07:39:59;6.93;;;2.50;;
52838;SDS011;39219;53.678;9.856;2024-03-25T07:42:25;7.25;;;2.20;;
52838;SDS011;39219;53.678;9.856;2024-03-25T07:44:50;5.65;;;1.88;;
52838;SDS011;39219;53.678;9.856;2024-03-25T07:47:16;7.00;;;2.03;;
52838;SDS011;39219;53.678;9.856;2024-03-25T07:49:43;6.78;;;2.03;;
52838;SDS011;39219;53.678;9.856;2024-03-25T07:52:09;10.43;;;2.88;;
52838;SDS011;39219;53.678;9.856;2024-03-25T07:54:34;12.02;;;2.90;;
52838;SDS011;39219;53.678;9.856;2024-03-25T07:57:00;7.25;;;2.60;;
52838;SDS011;39219;53.678;9.856;2024-03-25T07:59:25;8.38;;;3.13;;
52838;SDS011;39219;53.678;9.856;2024-03-25T08:01:51;5.88;;;2.35;;
52838;SDS011;39219;53.678;9.856;2024-03-25T08:04:16;8.55;;;2.40;;
52838;SDS011;39219;53.678;9.856;2024-03-25T08:06:43;9.05;;;2.50;;
52838;SDS011;39219;53.678;9.856;2024-03-25T08:09:09;10.93;;;2.65;;
52838;SDS011;39219;53.678;9.856;2024-03-25T08:11:34;8.50;;;2.50;;
52838;SDS011;39219;53.678;9.856;2024-03-25T08:14:00;8.00;;;2.78;;
52838;SDS011;39219;53.678;9.856;2024-03-25T08:16:26;11.75;;;3.00;;
52838;SDS011;39219;53.678;9.856;2024-03-25T08:18:51;9.18;;;3.00;;
52838;SDS011;39219;53.678;9.856;2024-03-25T08:21:17;7.60;;;2.85;;
52838;SDS011;39219;53.678;9.856;2024-03-25T08:23:45;8.85;;;2.90;;
52838;SDS011;39219;53.678;9.856;2024-03-25T08:26:11;8.05;;;2.92;;
52838;SDS011;39219;53.678;9.856;2024-03-25T08:28:36;7.32;;;2.75;;
52838;SDS011;39219;53.678;9.856;2024-03-25T08:31:03;8.27;;;2.78;;
52838;SDS011;39219;53.678;9.856;2024-03-25T08:33:28;11.52;;;2.70;;
52838;SDS011;39219;53.678;9.856;2024-03-25T08:35:54;10.63;;;2.55;;
52838;SDS011;39219;53.678;9.856;2024-03-25T08:38:19;9.13;;;2.53;;
52838;SDS011;39219;53.678;9.856;2024-03-25T08:40:46;8.13;;;2.15;;
52838;SDS011;39219;53.678;9.856;2024-03-25T08:43:12;8.10;;;2.05;;
52838;SDS011;39219;53.678;9.856;2024-03-25T08:45:38;8.50;;;2.20;;
52838;SDS011;39219;53.678;9.856;2024-03-25T08:48:03;7.85;;;2.05;;
52838;SDS011;39219;53.678;9.856;2024-03-25T08:50:29;6.18;;;1.75;;
52838;SDS011;39219;53.678;9.856;2024-03-25T08:52:55;9.60;;;2.22;;
52838;SDS011;39219;53.678;9.856;2024-03-25T08:55:21;5.50;;;1.92;;
52838;SDS011;39219;53.678;9.856;2024-03-25T08:57:47;6.55;;;1.85;;
52838;SDS011;39219;53.678;9.856;2024-03-25T09:00:13;7.93;;;2.28;;
52838;SDS011;39219;53.678;9.856;2024-03-25T09:02:40;5.65;;;1.83;;
52838;SDS011;39219;53.678;9.856;2024-03-25T09:05:05;8.30;;;2.35;;
52838;SDS011;39219;53.678;9.856;2024-03-25T09:07:32;12.80;;;2.45;;
52838;SDS011;39219;53.678;9.856;2024-03-25T09:09:57;5.95;;;2.00;;
52838;SDS011;39219;53.678;9.856;2024-03-25T09:12:41;5.65;;;2.00;;
52838;SDS011;39219;53.678;9.856;2024-03-25T09:15:08;8.18;;;2.30;;
52838;SDS011;39219;53.678;9.856;2024-03-25T09:17:34;8.98;;;1.95;;
52838;SDS011;39219;53.678;9.856;2024-03-25T09:20:00;10.63;;;2.50;;
52838;SDS011;39219;53.678;9.856;2024-03-25T09:22:26;10.27;;;2.22;;
52838;SDS011;39219;53.678;9.856;2024-03-25T09:24:51;9.23;;;2.60;;
52838;SDS011;39219;53.678;9.856;2024-03-25T09:27:17;7.00;;;2.60;;
52838;SDS011;39219;53.678;9.856;2024-03-25T09:29:42;8.55;;;2.13;;
52838;SDS011;39219;53.678;9.856;2024-03-25T09:32:09;8.05;;;2.15;;
52838;SDS011;39219;53.678;9.856;2024-03-25T09:34:35;10.70;;;2.58;;
52838;SDS011;39219;53.678;9.856;2024-03-25T09:37:00;9.07;;;2.42;;
52838;SDS011;39219;53.678;9.856;2024-03-25T09:39:26;11.27;;;2.38;;
52838;SDS011;39219;53.678;9.856;2024-03-25T09:41:52;7.05;;;2.10;;
52838;SDS011;39219;53.678;9.856;2024-03-25T09:44:21;9.88;;;2.40;;
52838;SDS011;39219;53.678;9.856;2024-03-25T09:46:49;7.70;;;2.42;;
52838;SDS011;39219;53.678;9.856;2024-03-25T09:49:16;4.38;;;1.98;;
52838;SDS011;39219;53.678;9.856;2024-03-25T09:51:42;12.55;;;2.75;;
52838;SDS011;39219;53.678;9.856;2024-03-25T09:54:07;5.88;;;1.90;;
52838;SDS011;39219;53.678;9.856;2024-03-25T09:56:33;4.57;;;1.65;;
52838;SDS011;39219;53.678;9.856;2024-03-25T09:58:59;4.70;;;1.52;;
52838;SDS011;39219;53.678;9.856;2024-03-25T10:01:25;7.78;;;1.92;;
52838;SDS011;39219;53.678;9.856;2024-03-25T10:03:51;9.00;;;2.25;;
52838;SDS011;39219;53.678;9.856;2024-03-25T10:06:18;6.80;;;2.00;;
52838;SDS011;39219;53.678;9.856;2024-03-25T10:08:44;8.27;;;2.33;;
52838;SDS011;39219;53.678;9.856;2024-03-25T10:11:10;8.18;;;2.70;;
52838;SDS011;39219;53.678;9.856;2024-03-25T10:13:35;9.93;;;2.58;;
52838;SDS011;39219;53.678;9.856;2024-03-25T10:16:02;6.40;;;1.98;;
52838;SDS011;39219;53.678;9.856;2024-03-25T10:18:28;6.97;;;2.15;;
52838;SDS011;39219;53.678;9.856;2024-03-25T10:20:53;7.28;;;2.08;;
52838;SDS011;39219;53.678;9.856;2024-03-25T10:23:21;9.55;;;1.83;;
52838;SDS011;39219;53.678;9.856;2024-03-25T10:25:48;9.55;;;2.15;;
52838;SDS011;39219;53.678;9.856;2024-03-25T10:28:14;7.13;;;1.90;;
52838;SDS011;39219;53.678;9.856;2024-03-25T10:30:40;5.70;;;1.63;;
52838;SDS011;39219;53.678;9.856;2024-03-25T10:33:06;5.95;;;2.20;;
52838;SDS011;39219;53.678;9.856;2024-03-25T10:35:33;6.50;;;1.80;;
52838;SDS011;39219;53.678;9.856;2024-03-25T10:38:00;6.75;;;2.28;;
52838;SDS011;39219;53.678;9.856;2024-03-25T10:40:29;7.70;;;2.13;;
52838;SDS011;39219;53.678;9.856;2024-03-25T10:43:00;9.05;;;2.08;;
52838;SDS011;39219;53.678;9.856;2024-03-25T10:45:28;7.57;;;2.10;;
52838;SDS011;39219;53.678;9.856;2024-03-25T10:47:55;5.97;;;1.67;;
52838;SDS011;39219;53.678;9.856;2024-03-25T10:50:23;7.00;;;1.95;;
52838;SDS011;39219;53.678;9.856;2024-03-25T10:52:53;4.75;;;1.70;;
52838;SDS011;39219;53.678;9.856;2024-03-25T10:55:19;6.05;;;1.77;;
52838;SDS011;39219;53.678;9.856;2024-03-25T10:57:46;6.03;;;1.90;;
52838;SDS011;39219;53.678;9.856;2024-03-25T11:00:13;6.80;;;1.90;;
52838;SDS011;39219;53.678;9.856;2024-03-25T11:02:40;5.97;;;2.08;;
52838;SDS011;39219;53.678;9.856;2024-03-25T11:05:06;4.28;;;1.23;;
52838;SDS011;39219;53.678;9.856;2024-03-25T11:07:33;8.07;;;2.38;;
52838;SDS011;39219;53.678;9.856;2024-03-25T11:10:02;6.47;;;1.85;;
52838;SDS011;39219;53.678;9.856;2024-03-25T11:12:34;5.45;;;1.80;;
52838;SDS011;39219;53.678;9.856;2024-03-25T11:15:02;6.22;;;1.90;;
52838;SDS011;39219;53.678;9.856;2024-03-25T11:17:28;8.38;;;2.17;;
52838;SDS011;39219;53.678;9.856;2024-03-25T11:19:54;6.07;;;2.20;;
52838;SDS011;39219;53.678;9.856;2024-03-25T11:22:32;6.45;;;1.83;;
52838;SDS011;39219;53.678;9.856;2024-03-25T11:24:57;7.90;;;2.10;;
52838;SDS011;39219;53.678;9.856;2024-03-25T11:27:31;5.68;;;1.90;;
52838;SDS011;39219;53.678;9.856;2024-03-25T11:29:56;6.80;;;1.88;;
52838;SDS011;39219;53.678;9.856;2024-03-25T11:32:23;5.47;;;1.70;;
52838;SDS011;39219;53.678;9.856;2024-03-25T11:34:50;7.60;;;1.98;;
52838;SDS011;39219;53.678;9.856;2024-03-25T11:37:16;9.15;;;1.80;;
52838;SDS011;39219;53.678;9.856;2024-03-25T11:39:41;7.47;;;1.63;;
52838;SDS011;39219;53.678;9.856;2024-03-25T11:42:07;5.07;;;1.70;;
52838;SDS011;39219;53.678;9.856;2024-03-25T11:44:35;6.13;;;1.88;;
52838;SDS011;39219;53.678;9.856;2024-03-25T11:47:01;4.15;;;1.65;;
52838;SDS011;39219;53.678;9.856;2024-03-25T11:49:28;6.13;;;1.55;;
52838;SDS011;39219;53.678;9.856;2024-03-25T11:51:54;6.55;;;1.73;;
52838;SDS011;39219;53.678;9.856;2024-03-25T11:54:20;4.30;;;1.38;;
52838;SDS011;39219;53.678;9.856;2024-03-25T11:56:45;9.00;;;1.92;;
52838;SDS011;39219;53.678;9.856;2024-03-25T11:59:12;5.13;;;1.40;;
52838;SDS011;39219;53.678;9.856;2024-03-25T12:01:38;4.90;;;1.70;;
52838;SDS011;39219;53.678;9.856;2024-03-25T12:04:09;6.00;;;1.90;;
52838;SDS011;39219;53.678;9.856;2024-03-25T12:06:36;6.90;;;1.60;;
52838;SDS011;39219;53.678;9.856;2024-03-25T12:09:02;6.90;;;1.80;;
52838;SDS011;39219;53.678;9.856;2024-03-25T12:11:47;6.78;;;1.80;;
52838;SDS011;39219;53.678;9.856;2024-03-25T12:14:13;5.63;;;1.63;;
52838;SDS011;39219;53.678;9.856;2024-03-25T12:16:38;5.82;;;1.73;;
52838;SDS011;39219;53.678;9.856;2024-03-25T12:19:05;4.90;;;1.70;;
52838;SDS011;39219;53.678;9.856;2024-03-25T12:21:30;8.73;;;2.08;;
52838;SDS011;39219;53.678;9.856;2024-03-25T12:23:58;7.22;;;1.95;;
52838;SDS011;39219;53.678;9.856;2024-03-25T12:26:24;8.10;;;1.88;;
52838;SDS011;39219;53.678;9.856;2024-03-25T12:28:50;6.88;;;2.08;;
52838;SDS011;39219;53.678;9.856;2024-03-25T12:31:16;5.68;;;1.90;;
52838;SDS011;39219;53.678;9.856;2024-03-25T12:33:42;7.72;;;2.08;;
52838;SDS011;39219;53.678;9.856;2024-03-25T12:36:08;4.32;;;1.67;;
52838;SDS011;39219;53.678;9.856;2024-03-25T12:38:36;8.02;;;1.88;;
52838;SDS011;39219;53.678;9.856;2024-03-25T12:41:07;8.75;;;2.28;;
52838;SDS011;39219;53.678;9.856;2024-03-25T12:43:33;8.02;;;2.33;;
52838;SDS011;39219;53.678;9.856;2024-03-25T12:46:00;6.38;;;2.40;;
52838;SDS011;39219;53.678;9.856;2024-03-25T12:48:26;10.23;;;2.45;;
52838;SDS011;39219;53.678;9.856;2024-03-25T12:50:51;9.68;;;2.33;;
52838;SDS011;39219;53.678;9.856;2024-03-25T12:53:18;9.27;;;2.30;;
52838;SDS011;39219;53.678;9.856;2024-03-25T12:55:44;8.63;;;2.10;;
52838;SDS011;39219;53.678;9.856;2024-03-25T12:58:11;8.63;;;2.03;;
52838;SDS011;39219;53.678;9.856;2024-03-25T13:00:37;6.13;;;2.00;;
52838;SDS011;39219;53.678;9.856;2024-03-25T13:03:03;8.52;;;2.33;;
52838;SDS011;39219;53.678;9.856;2024-03-25T13:05:29;7.35;;;1.90;;
52838;SDS011;39219;53.678;9.856;2024-03-25T13:07:55;6.93;;;1.90;;
52838;SDS011;39219;53.678;9.856;2024-03-25T13:10:20;6.95;;;1.80;;
52838;SDS011;39219;53.678;9.856;2024-03-25T13:12:46;6.93;;;1.80;;
52838;SDS011;39219;53.678;9.856;2024-03-25T13:15:13;5.72;;;1.80;;
52838;SDS011;39219;53.678;9.856;2024-03-25T13:17:39;6.05;;;1.73;;
52838;SDS011;39219;53.678;9.856;2024-03-25T13:20:05;5.03;;;1.42;;
52838;SDS011;39219;53.678;9.856;2024-03-25T13:22:31;5.00;;;1.80;;
52838;SDS011;39219;53.678;9.856;2024-03-25T13:24:56;3.55;;;1.23;;
52838;SDS011;39219;53.678;9.856;2024-03-25T13:27:22;8.52;;;2.15;;
52838;SDS011;39219;53.678;9.856;2024-03-25T13:29:47;5.50;;;1.63;;
52838;SDS011;39219;53.678;9.856;2024-03-25T13:32:14;5.35;;;1.55;;
52838;SDS011;39219;53.678;9.856;2024-03-25T13:34:40;5.90;;;1.98;;
52838;SDS011;39219;53.678;9.856;2024-03-25T13:37:05;7.72;;;1.65;;
52838;SDS011;39219;53.678;9.856;2024-03-25T13:39:31;7.68;;;2.03;;
52838;SDS011;39219;53.678;9.856;2024-03-25T13:41:57;7.15;;;1.88;;
52838;SDS011;39219;53.678;9.856;2024-03-25T13:44:22;7.50;;;1.55;;
52838;SDS011;39219;53.678;9.856;2024-03-25T13:46:48;8.45;;;1.90;;
52838;SDS011;39219;53.678;9.856;2024-03-25T13:49:14;6.25;;;1.83;;
52838;SDS011;39219;53.678;9.856;2024-03-25T13:51:40;6.25;;;1.52;;
52838;SDS011;39219;53.678;9.856;2024-03-25T13:54:06;6.70;;;1.88;;
52838;SDS011;39219;53.678;9.856;2024-03-25T13:56:31;4.68;;;1.77;;
52838;SDS011;39219;53.678;9.856;2024-03-25T13:58:57;6.85;;;1.70;;
52838;SDS011;39219;53.678;9.856;2024-03-25T14:01:22;7.38;;;2.05;;
52838;SDS011;39219;53.678;9.856;2024-03-25T14:03:48;5.30;;;1.60;;
52838;SDS011;39219;53.678;9.856;2024-03-25T14:06:15;6.38;;;1.80;;
52838;SDS011;39219;53.678;9.856;2024-03-25T14:08:41;7.65;;;1.90;;
52838;SDS011;39219;53.678;9.856;2024-03-25T14:11:06;6.60;;;1.63;;
52838;SDS011;39219;53.678;9.856;2024-03-25T14:13:32;4.45;;;1.52;;
52838;SDS011;39219;53.678;9.856;2024-03-25T14:15:57;5.50;;;1.92;;
52838;SDS011;39219;53.678;9.856;2024-03-25T14:18:23;5.20;;;1.52;;
52838;SDS011;39219;53.678;9.856;2024-03-25T14:20:51;6.85;;;2.15;;
52838;SDS011;39219;53.678;9.856;2024-03-25T14:23:18;6.03;;;1.60;;
52838;SDS011;39219;53.678;9.856;2024-03-25T14:25:44;5.97;;;1.85;;
52838;SDS011;39219;53.678;9.856;2024-03-25T14:28:09;5.18;;;1.60;;
52838;SDS011;39219;53.678;9.856;2024-03-25T14:30:35;9.10;;;2.97;;
52838;SDS011;39219;53.678;9.856;2024-03-25T14:33:01;4.45;;;1.48;;
52838;SDS011;39219;53.678;9.856;2024-03-25T14:35:26;9.35;;;3.20;;
52838;SDS011;39219;53.678;9.856;2024-03-25T14:37:52;5.72;;;1.70;;
52838;SDS011;39219;53.678;9.856;2024-03-25T14:40:19;6.82;;;1.50;;